createdAt,value
2023-04-26T00:01:41.791Z,98.67
2023-04-26T00:04:10.502Z,98.32
2023-04-26T00:06:38.393Z,98.21
2023-04-26T00:09:06.749Z,97.92
2023-04-26T00:11:35.405Z,98.33
2023-04-26T00:14:03.163Z,98.38
2023-04-26T00:16:32.299Z,98.38
2023-04-26T00:19:00.205Z,98.74
2023-04-26T00:21:28.622Z,98.27
2023-04-26T00:23:56.631Z,98.70
2023-04-26T00:26:24.613Z,99.06
2023-04-26T00:28:54.334Z,98.31
2023-04-26T00:31:25.210Z,98.24
2023-04-26T00:33:54.278Z,98.04
2023-04-26T00:36:22.170Z,98.69
2023-04-26T00:38:50.286Z,98.86
2023-04-26T00:41:18.730Z,99.09
2023-04-26T00:43:51.673Z,98.99
2023-04-26T00:46:19.500Z,98.43
2023-04-26T00:48:48.470Z,98.93
2023-04-26T00:51:17.918Z,98.82
2023-04-26T00:53:46.212Z,99.02
2023-04-26T00:56:14.985Z,99.22
2023-04-26T00:58:43.545Z,99.67
2023-04-26T01:01:13.549Z,99.24
2023-04-26T01:03:44.431Z,98.69
2023-04-26T01:06:13.293Z,99.20
2023-04-26T01:08:43.890Z,98.75
2023-04-26T01:11:13.034Z,99.00
2023-04-26T01:13:45.643Z,99.44
2023-04-26T01:16:21.144Z,99.55
2023-04-26T01:18:52.408Z,99.70
2023-04-26T01:21:22.270Z,99.63
2023-04-26T01:23:51.389Z,99.74
2023-04-26T01:26:19.711Z,100.00
2023-04-26T01:28:49.693Z,99.92
2023-04-26T01:31:18.400Z,99.95
2023-04-26T01:33:47.358Z,100.00
2023-04-26T01:36:16.588Z,100.00
2023-04-26T01:38:52.515Z,100.00
2023-04-26T01:41:28.737Z,100.00
2023-04-26T01:44:02.653Z,100.00
2023-04-26T01:46:46.885Z,100.00
2023-04-26T01:49:22.812Z,100.00
2023-04-26T01:51:54.779Z,100.00
2023-04-26T01:54:30.376Z,100.00
2023-04-26T01:57:12.061Z,100.00
2023-04-26T01:59:47.158Z,100.00
2023-04-26T02:02:20.613Z,100.00
2023-04-26T02:04:48.804Z,100.00
2023-04-26T02:07:20.442Z,100.00
2023-04-26T02:09:48.582Z,100.00
2023-04-26T02:12:17.613Z,100.00
2023-04-26T02:14:45.323Z,100.00
2023-04-26T02:17:14.025Z,100.00
2023-04-26T02:19:45.284Z,100.00
2023-04-26T02:22:13.810Z,100.00
2023-04-26T02:24:42.670Z,100.00
2023-04-26T02:27:10.797Z,100.00
2023-04-26T02:29:43.625Z,100.00
2023-04-26T02:32:13.171Z,100.00
2023-04-26T02:34:43.137Z,100.00
2023-04-26T02:37:17.246Z,100.00
2023-04-26T02:39:48.846Z,100.00
2023-04-26T02:42:17.464Z,100.00
2023-04-26T02:44:47.646Z,100.00
2023-04-26T02:47:15.380Z,100.00
2023-04-26T02:49:43.098Z,100.00
2023-04-26T02:52:12.209Z,100.00
2023-04-26T02:54:40.549Z,100.00
2023-04-26T02:57:13.481Z,100.00
2023-04-26T02:59:41.637Z,100.00
2023-04-26T03:02:15.004Z,100.00
2023-04-26T03:04:42.762Z,100.00
2023-04-26T03:07:13.452Z,100.00
2023-04-26T03:09:41.300Z,100.00
2023-04-26T03:12:12.879Z,100.00
2023-04-26T03:14:42.464Z,100.00
2023-04-26T03:17:12.000Z,100.00
2023-04-26T03:19:39.647Z,100.00
2023-04-26T03:22:07.612Z,100.00
2023-04-26T03:24:35.524Z,100.00
2023-04-26T03:27:03.186Z,100.00
2023-04-26T03:29:30.993Z,100.00
2023-04-26T03:31:58.667Z,100.00
2023-04-26T03:34:28.364Z,100.00
2023-04-26T03:36:57.368Z,100.00
2023-04-26T03:39:25.340Z,100.00
2023-04-26T03:41:53.610Z,100.00
2023-04-26T03:44:21.303Z,100.00
2023-04-26T03:46:49.565Z,100.00
2023-04-26T03:49:21.162Z,100.00
2023-04-26T03:51:55.703Z,100.00
2023-04-26T03:54:23.837Z,100.00
2023-04-26T03:56:53.548Z,100.00
2023-04-26T03:59:21.858Z,100.00
2023-04-26T04:01:50.882Z,100.00
2023-04-26T04:04:19.023Z,100.00
2023-04-26T04:06:47.650Z,100.00
2023-04-26T04:09:16.831Z,100.00
2023-04-26T04:11:45.796Z,100.00
2023-04-26T04:14:15.576Z,100.00
2023-04-26T04:16:46.678Z,100.00
2023-04-26T04:19:14.523Z,100.00
2023-04-26T04:21:43.411Z,100.00
2023-04-26T04:24:13.126Z,100.00
2023-04-26T04:26:42.718Z,100.00
2023-04-26T04:29:10.629Z,100.00
2023-04-26T04:31:40.105Z,100.00
2023-04-26T04:34:08.806Z,100.00
2023-04-26T04:36:40.052Z,100.00
2023-04-26T04:39:13.467Z,100.00
2023-04-26T04:41:49.581Z,100.00
2023-04-26T04:44:22.018Z,100.00
2023-04-26T04:46:54.857Z,100.00
2023-04-26T04:49:25.452Z,100.00
2023-04-26T04:51:53.869Z,100.00
2023-04-26T04:54:21.783Z,100.00
2023-04-26T04:56:52.151Z,100.00
2023-04-26T04:59:20.278Z,100.00
2023-04-26T05:01:51.356Z,100.00
2023-04-26T05:04:26.438Z,100.00
2023-04-26T05:06:54.858Z,100.00
2023-04-26T05:09:27.574Z,100.00
2023-04-26T05:11:57.174Z,100.00
2023-04-26T05:14:24.865Z,100.00
2023-04-26T05:16:55.229Z,100.00
2023-04-26T05:19:26.238Z,100.00
2023-04-26T05:21:54.183Z,100.00
2023-04-26T05:24:22.150Z,100.00
2023-04-26T05:26:49.851Z,100.00
2023-04-26T05:29:54.245Z,100.00
2023-04-26T05:32:42.969Z,100.00
2023-04-26T05:35:17.766Z,100.00
2023-04-26T05:37:45.937Z,100.00
2023-04-26T05:40:16.927Z,100.00
2023-04-26T05:42:46.095Z,100.00
2023-04-26T05:45:15.593Z,100.00
2023-04-26T05:47:43.815Z,100.00
2023-04-26T05:50:13.316Z,100.00
2023-04-26T05:52:41.546Z,100.00
2023-04-26T05:55:10.339Z,100.00
2023-04-26T05:57:38.942Z,100.00
2023-04-26T06:00:12.722Z,100.00
2023-04-26T06:02:47.094Z,100.00
2023-04-26T06:05:19.058Z,100.00
2023-04-26T06:07:47.156Z,100.00
2023-04-26T06:10:15.004Z,100.00
2023-04-26T06:12:42.827Z,100.00
2023-04-26T06:15:12.072Z,100.00
2023-04-26T06:17:41.655Z,100.00
2023-04-26T06:20:12.216Z,100.00
2023-04-26T06:22:41.399Z,100.00
2023-04-26T06:25:09.807Z,100.00
2023-04-26T06:27:43.018Z,100.00
2023-04-26T06:30:11.624Z,100.00
2023-04-26T06:32:43.551Z,99.99
2023-04-26T06:35:13.241Z,98.85
2023-04-26T06:37:41.060Z,99.00
2023-04-26T06:40:11.226Z,97.62
2023-04-26T06:42:39.567Z,97.16
2023-04-26T06:45:46.066Z,95.85
2023-04-26T06:48:17.316Z,95.11
2023-04-26T06:50:47.976Z,94.58
2023-04-26T06:53:20.690Z,95.50
2023-04-26T06:55:49.539Z,94.61
2023-04-26T06:58:17.447Z,94.04
2023-04-26T07:00:45.280Z,93.41
2023-04-26T07:03:13.197Z,93.37
2023-04-26T07:05:41.657Z,92.75
2023-04-26T07:08:11.243Z,92.61
2023-04-26T07:10:40.450Z,92.87
2023-04-26T07:13:09.528Z,92.81
2023-04-26T07:15:37.656Z,90.25
2023-04-26T07:18:06.160Z,89.46
2023-04-26T07:20:33.955Z,89.05
2023-04-26T07:23:01.695Z,88.94
2023-04-26T07:25:31.446Z,88.59
2023-04-26T07:27:59.291Z,89.23
2023-04-26T07:30:27.356Z,89.30
2023-04-26T07:32:55.159Z,89.52
2023-04-26T07:35:23.869Z,87.67
2023-04-26T07:37:51.748Z,87.69
2023-04-26T07:40:22.736Z,87.87
2023-04-26T07:42:52.063Z,87.78
2023-04-26T07:45:20.052Z,85.23
2023-04-26T07:47:48.057Z,86.09
2023-04-26T07:50:17.306Z,85.14
2023-04-26T07:52:45.171Z,83.50
2023-04-26T07:55:17.554Z,82.60
2023-04-26T07:57:45.517Z,81.81
2023-04-26T08:00:16.815Z,81.97
2023-04-26T08:02:45.981Z,81.42
2023-04-26T08:05:14.343Z,79.08
2023-04-26T08:07:43.840Z,78.74
2023-04-26T08:10:12.268Z,77.85
2023-04-26T08:12:40.137Z,77.19
2023-04-26T08:15:09.240Z,76.16
2023-04-26T08:17:38.601Z,74.15
2023-04-26T08:20:09.586Z,73.80
2023-04-26T08:22:37.606Z,73.94
2023-04-26T08:25:06.566Z,73.73
2023-04-26T08:27:36.032Z,74.22
2023-04-26T08:30:05.700Z,73.43
2023-04-26T08:32:35.700Z,72.61
2023-04-26T08:35:05.665Z,72.18
2023-04-26T08:37:33.546Z,71.23
2023-04-26T08:40:01.814Z,69.94
2023-04-26T08:42:30.143Z,69.78
2023-04-26T08:45:02.593Z,69.76
2023-04-26T08:47:35.076Z,69.66
2023-04-26T08:50:07.083Z,67.88
2023-04-26T08:52:36.655Z,68.22
2023-04-26T08:55:06.782Z,68.11
2023-04-26T08:57:34.918Z,68.57
2023-04-26T09:00:05.716Z,69.08
2023-04-26T09:02:34.524Z,68.13
2023-04-26T09:05:04.979Z,66.29
2023-04-26T09:07:34.714Z,66.35
2023-04-26T09:10:08.155Z,65.23
2023-04-26T09:12:36.435Z,64.48
2023-04-26T09:15:05.213Z,63.87
2023-04-26T09:17:36.712Z,65.19
2023-04-26T09:20:21.673Z,63.22
2023-04-26T09:22:50.450Z,64.39
2023-04-26T09:25:20.172Z,65.13
2023-04-26T09:27:48.091Z,65.39
2023-04-26T09:30:18.444Z,64.55
2023-04-26T09:32:48.991Z,65.42
2023-04-26T09:35:27.328Z,64.59
2023-04-26T09:38:00.329Z,64.62
2023-04-26T09:40:32.197Z,64.54
2023-04-26T09:43:01.942Z,64.88
2023-04-26T09:45:31.421Z,63.92
2023-04-26T09:48:18.441Z,63.37
2023-04-26T09:50:48.581Z,63.07
2023-04-26T09:53:31.197Z,63.29
2023-04-26T09:56:07.677Z,60.47
2023-04-26T09:58:36.313Z,59.89
2023-04-26T10:01:04.984Z,58.72
2023-04-26T10:03:35.185Z,56.64
2023-04-26T10:06:04.830Z,57.78
2023-04-26T10:08:33.634Z,57.52
2023-04-26T10:11:03.394Z,56.94
2023-04-26T10:13:33.587Z,58.13
2023-04-26T10:16:02.075Z,58.07
2023-04-26T10:18:30.531Z,57.14
2023-04-26T10:21:01.261Z,57.09
2023-04-26T10:23:30.560Z,59.20
2023-04-26T10:25:58.287Z,60.46
2023-04-26T10:29:02.618Z,61.71
2023-04-26T10:32:05.313Z,62.32
2023-04-26T10:34:34.630Z,61.23
2023-04-26T10:37:12.635Z,61.54
2023-04-26T10:39:43.066Z,60.36
2023-04-26T10:42:25.477Z,60.13
2023-04-26T10:44:54.398Z,60.91
2023-04-26T10:47:30.778Z,62.08
2023-04-26T10:50:07.297Z,63.09
2023-04-26T10:52:35.879Z,62.49
2023-04-26T10:55:06.476Z,62.60
2023-04-26T10:57:51.608Z,60.90
2023-04-26T11:00:32.898Z,58.66
2023-04-26T11:03:05.862Z,58.89
2023-04-26T11:05:38.784Z,59.27
2023-04-26T11:08:09.181Z,57.51
2023-04-26T11:10:42.165Z,55.87
2023-04-26T11:13:10.333Z,56.65
2023-04-26T11:15:38.229Z,56.21
2023-04-26T11:18:06.583Z,56.80
2023-04-26T11:20:35.497Z,57.70
2023-04-26T11:23:03.378Z,56.53
2023-04-26T11:25:31.554Z,55.60
2023-04-26T11:28:04.546Z,54.62
2023-04-26T11:30:32.930Z,56.05
2023-04-26T11:33:01.360Z,56.27
2023-04-26T11:35:30.923Z,55.24
2023-04-26T11:38:00.752Z,56.04
2023-04-26T11:40:29.904Z,56.38
2023-04-26T11:43:01.689Z,56.80
2023-04-26T11:45:33.246Z,55.87
2023-04-26T11:48:02.990Z,57.32
2023-04-26T11:50:32.827Z,56.79
2023-04-26T11:53:02.644Z,55.94
2023-04-26T11:55:32.196Z,54.31
2023-04-26T11:58:00.697Z,53.08
2023-04-26T12:00:30.160Z,53.29
2023-04-26T12:02:58.476Z,53.42
2023-04-26T12:05:31.233Z,53.88
2023-04-26T12:08:00.969Z,55.56
2023-04-26T12:10:30.473Z,55.06
2023-04-26T12:13:01.128Z,54.17
2023-04-26T12:15:32.716Z,54.33
2023-04-26T12:18:02.274Z,53.59
2023-04-26T12:20:32.322Z,51.32
2023-04-26T12:23:01.671Z,52.34
2023-04-26T12:25:30.334Z,52.11
2023-04-26T12:27:58.564Z,51.05
2023-04-26T12:30:28.372Z,50.91
2023-04-26T12:33:16.579Z,51.27
2023-04-26T12:35:45.191Z,50.90
2023-04-26T12:38:13.393Z,52.28
2023-04-26T12:40:41.731Z,52.32
2023-04-26T12:43:09.862Z,52.38
2023-04-26T12:45:37.780Z,52.60
2023-04-26T12:48:07.452Z,51.45
2023-04-26T12:50:35.555Z,52.48
2023-04-26T12:53:03.315Z,51.57
2023-04-26T12:55:32.798Z,52.07
2023-04-26T12:58:01.193Z,51.39
2023-04-26T13:00:29.076Z,51.94
2023-04-26T13:02:57.080Z,50.02
2023-04-26T13:05:26.866Z,49.78
2023-04-26T13:07:54.663Z,50.09
2023-04-26T13:10:22.549Z,50.64
2023-04-26T13:12:50.845Z,51.05
2023-04-26T13:15:18.744Z,50.27
2023-04-26T13:17:47.085Z,49.48
2023-04-26T13:20:15.303Z,51.41
2023-04-26T13:22:44.509Z,51.55
2023-04-26T13:25:13.255Z,51.70
2023-04-26T13:27:41.146Z,51.33
2023-04-26T13:30:10.605Z,49.53
2023-04-26T13:32:38.649Z,50.23
2023-04-26T13:35:08.236Z,49.67
2023-04-26T13:37:36.249Z,50.18
2023-04-26T13:40:06.557Z,50.39
2023-04-26T13:42:34.491Z,49.80
2023-04-26T13:45:06.288Z,49.61
2023-04-26T13:47:34.184Z,49.60
2023-04-26T13:50:02.142Z,49.52
2023-04-26T13:52:29.930Z,48.14
2023-04-26T13:54:57.851Z,46.80
2023-04-26T13:57:30.495Z,47.08
2023-04-26T13:59:58.250Z,48.56
2023-04-26T14:02:26.605Z,47.54
2023-04-26T14:04:56.056Z,47.19
2023-04-26T14:07:24.020Z,47.11
2023-04-26T14:09:53.188Z,47.58
2023-04-26T14:12:21.020Z,47.67
2023-04-26T14:14:50.313Z,48.13
2023-04-26T14:17:18.162Z,48.45
2023-04-26T14:19:46.020Z,48.16
2023-04-26T14:22:17.461Z,47.76
2023-04-26T14:24:45.349Z,47.33
2023-04-26T14:27:13.134Z,47.08
2023-04-26T14:29:41.186Z,47.05
2023-04-26T14:32:10.366Z,44.79
2023-04-26T14:34:39.259Z,44.37
2023-04-26T14:37:07.699Z,43.28
2023-04-26T14:39:35.863Z,41.75
2023-04-26T14:42:04.387Z,42.63
2023-04-26T14:44:32.164Z,43.62
2023-04-26T14:47:00.051Z,43.84
2023-04-26T14:49:29.520Z,43.79
2023-04-26T14:51:57.208Z,43.27
2023-04-26T14:54:25.164Z,42.59
2023-04-26T14:56:53.649Z,44.09
2023-04-26T14:59:21.890Z,44.15
2023-04-26T15:01:50.378Z,44.96
2023-04-26T15:04:18.263Z,45.52
2023-04-26T15:06:47.419Z,45.98
2023-04-26T15:09:15.443Z,44.71
2023-04-26T15:11:43.297Z,45.72
2023-04-26T15:14:11.013Z,46.11
2023-04-26T15:16:38.820Z,46.33
2023-04-26T15:19:07.543Z,46.28
2023-04-26T15:21:35.385Z,47.60
2023-04-26T15:24:04.702Z,47.59
2023-04-26T15:26:32.835Z,46.45
2023-04-26T15:29:00.782Z,45.98
2023-04-26T15:31:28.744Z,46.81
2023-04-26T15:33:58.006Z,47.07
2023-04-26T15:36:26.010Z,47.15
2023-04-26T15:38:53.756Z,47.88
2023-04-26T15:41:23.169Z,48.00
2023-04-26T15:43:54.489Z,48.07
2023-04-26T15:46:22.809Z,48.56
2023-04-26T15:48:51.532Z,48.50
2023-04-26T15:51:19.264Z,48.59
2023-04-26T15:53:49.110Z,48.63
2023-04-26T15:56:20.344Z,48.46
2023-04-26T15:58:49.696Z,48.51
2023-04-26T16:01:17.874Z,48.84
2023-04-26T16:03:47.616Z,48.89
2023-04-26T16:06:16.165Z,48.01
2023-04-26T16:08:44.901Z,48.25
2023-04-26T16:11:12.636Z,48.84
2023-04-26T16:13:40.460Z,48.77
2023-04-26T16:16:10.842Z,48.22
2023-04-26T16:18:40.279Z,47.83
2023-04-26T16:21:09.718Z,48.21
2023-04-26T16:23:38.606Z,47.90
2023-04-26T16:26:07.005Z,48.57
2023-04-26T16:28:34.842Z,48.92
2023-04-26T16:31:02.728Z,49.04
2023-04-26T16:33:31.997Z,50.09
2023-04-26T16:35:59.835Z,49.49
2023-04-26T16:38:27.605Z,50.15
2023-04-26T16:40:58.521Z,50.63
2023-04-26T16:43:27.009Z,51.21
2023-04-26T16:45:59.221Z,51.26
2023-04-26T16:48:27.257Z,50.37
2023-04-26T16:50:57.645Z,51.34
2023-04-26T16:53:26.003Z,51.90
2023-04-26T16:55:53.794Z,52.17
2023-04-26T16:58:21.674Z,52.08
2023-04-26T17:00:49.875Z,52.44
2023-04-26T17:03:18.421Z,52.74
2023-04-26T17:05:48.019Z,53.00
2023-04-26T17:08:17.931Z,52.75
2023-04-26T17:10:46.890Z,53.37
2023-04-26T17:13:14.924Z,53.44
2023-04-26T17:15:43.390Z,53.54
2023-04-26T17:18:11.910Z,54.24
2023-04-26T17:20:39.915Z,53.69
2023-04-26T17:23:08.697Z,54.21
2023-04-26T17:25:37.844Z,54.14
2023-04-26T17:28:05.931Z,54.87
2023-04-26T17:30:33.704Z,54.24
2023-04-26T17:33:01.557Z,54.04
2023-04-26T17:35:29.472Z,54.83
2023-04-26T17:37:57.432Z,55.18
2023-04-26T17:40:25.498Z,54.66
2023-04-26T17:42:54.672Z,55.03
2023-04-26T17:45:22.684Z,55.15
2023-04-26T17:47:50.715Z,56.18
2023-04-26T17:50:21.085Z,56.30
2023-04-26T17:52:49.032Z,55.60
2023-04-26T17:55:16.997Z,56.35
2023-04-26T17:57:44.939Z,56.46
2023-04-26T18:00:15.728Z,56.76
2023-04-26T18:02:44.068Z,56.27
2023-04-26T18:05:12.519Z,56.46
2023-04-26T18:07:40.367Z,56.40
2023-04-26T18:10:09.199Z,56.89
2023-04-26T18:12:37.112Z,57.22
2023-04-26T18:15:06.596Z,57.65
2023-04-26T18:17:36.323Z,58.40
2023-04-26T18:20:04.768Z,58.07
2023-04-26T18:22:32.991Z,58.66
2023-04-26T18:25:00.757Z,59.26
2023-04-26T18:27:32.237Z,59.61
2023-04-26T18:30:00.301Z,59.87
2023-04-26T18:32:28.190Z,60.60
2023-04-26T18:34:57.334Z,60.45
2023-04-26T18:37:25.685Z,60.96
2023-04-26T18:39:53.462Z,61.84
2023-04-26T18:42:21.441Z,61.41
2023-04-26T18:44:49.213Z,61.33
2023-04-26T18:47:17.069Z,62.08
2023-04-26T18:49:44.864Z,62.93
2023-04-26T18:52:14.003Z,63.10
2023-04-26T18:54:42.129Z,63.06
2023-04-26T18:57:10.705Z,63.60
2023-04-26T18:59:38.718Z,64.56
2023-04-26T19:02:06.581Z,64.48
2023-04-26T19:04:34.601Z,64.62
2023-04-26T19:07:02.696Z,65.58
2023-04-26T19:09:42.803Z,66.12
2023-04-26T19:12:18.637Z,66.63
2023-04-26T19:14:46.520Z,67.04
2023-04-26T19:17:14.511Z,67.22
2023-04-26T19:19:42.370Z,67.64
2023-04-26T19:22:10.234Z,68.77
2023-04-26T19:24:39.367Z,68.91
2023-04-26T19:27:07.233Z,70.52
2023-04-26T19:29:35.092Z,69.79
2023-04-26T19:32:06.770Z,69.61
2023-04-26T19:34:34.967Z,69.08
2023-04-26T19:37:03.501Z,69.25
2023-04-26T19:39:31.389Z,69.63
2023-04-26T19:42:01.670Z,69.63
2023-04-26T19:44:29.742Z,69.70
2023-04-26T19:46:57.679Z,70.53
2023-04-26T19:49:27.784Z,70.57
2023-04-26T19:51:56.992Z,71.33
2023-04-26T19:54:25.127Z,71.55
2023-04-26T19:56:52.876Z,71.32
2023-04-26T19:59:22.002Z,71.62
2023-04-26T20:01:51.007Z,72.02
2023-04-26T20:04:21.373Z,72.21
2023-04-26T20:06:49.430Z,71.75
2023-04-26T20:09:17.312Z,72.12
2023-04-26T20:11:45.126Z,72.78
2023-04-26T20:14:12.935Z,73.44
2023-04-26T20:16:42.082Z,73.71
2023-04-26T20:19:10.351Z,74.15
2023-04-26T20:21:38.384Z,74.58
2023-04-26T20:24:07.746Z,74.76
2023-04-26T20:26:35.763Z,74.60
2023-04-26T20:29:03.506Z,74.83
2023-04-26T20:31:31.467Z,74.70
2023-04-26T20:34:00.915Z,74.92
2023-04-26T20:36:28.835Z,74.96
2023-04-26T20:38:56.663Z,75.20
2023-04-26T20:41:24.460Z,76.10
2023-04-26T20:43:53.065Z,76.62
2023-04-26T20:46:21.011Z,76.56
2023-04-26T20:48:49.087Z,76.42
2023-04-26T20:51:18.157Z,77.12
2023-04-26T20:53:46.014Z,77.14
2023-04-26T20:56:13.886Z,76.76
2023-04-26T20:58:41.917Z,77.28
2023-04-26T21:01:10.994Z,77.08
2023-04-26T21:03:39.351Z,77.56
2023-04-26T21:06:07.315Z,77.38
2023-04-26T21:08:37.059Z,77.54
2023-04-26T21:11:05.066Z,78.09
2023-04-26T21:13:32.886Z,78.42
2023-04-26T21:16:02.358Z,78.58
2023-04-26T21:18:30.391Z,78.23
2023-04-26T21:20:58.226Z,78.40
2023-04-26T21:23:26.023Z,78.14
2023-04-26T21:25:55.216Z,78.50
2023-04-26T21:28:23.125Z,78.21
2023-04-26T21:30:50.913Z,78.18
2023-04-26T21:33:18.772Z,78.27
2023-04-26T21:35:46.675Z,77.70
2023-04-26T21:38:14.427Z,77.79
2023-04-26T21:40:42.238Z,77.35
2023-04-26T21:43:11.413Z,77.25
2023-04-26T21:45:39.171Z,77.81
2023-04-26T21:48:07.033Z,79.04
2023-04-26T21:50:34.847Z,79.76
2023-04-26T21:53:03.131Z,80.45
2023-04-26T21:55:30.876Z,80.36
2023-04-26T21:57:58.712Z,80.58
2023-04-26T22:00:28.203Z,81.29
2023-04-26T22:02:56.186Z,82.05
2023-04-26T22:05:25.954Z,82.83
2023-04-26T22:07:53.903Z,83.05
2023-04-26T22:10:22.257Z,83.43
2023-04-26T22:12:50.134Z,83.71
2023-04-26T22:15:18.019Z,84.47
2023-04-26T22:17:47.193Z,84.57
2023-04-26T22:20:15.625Z,84.95
2023-04-26T22:22:43.414Z,84.46
2023-04-26T22:25:11.510Z,84.79
2023-04-26T22:27:39.453Z,84.77
2023-04-26T22:30:23.149Z,85.10
2023-04-26T22:32:55.511Z,85.25
2023-04-26T22:35:24.039Z,85.05
2023-04-26T22:37:52.338Z,85.06
2023-04-26T22:40:20.745Z,85.39
2023-04-26T22:42:48.781Z,85.55
2023-04-26T22:45:16.774Z,85.40
2023-04-26T22:47:44.566Z,85.85
2023-04-26T22:50:14.039Z,85.66
2023-04-26T22:52:41.813Z,85.54
2023-04-26T22:55:10.545Z,85.68
2023-04-26T22:57:38.586Z,86.28
2023-04-26T23:00:09.607Z,86.36
2023-04-26T23:02:37.526Z,86.62
2023-04-26T23:05:09.533Z,86.32
2023-04-26T23:07:39.184Z,86.66
2023-04-26T23:10:08.363Z,86.82
2023-04-26T23:12:37.152Z,86.59
2023-04-26T23:15:06.245Z,86.16
2023-04-26T23:17:34.807Z,86.67
2023-04-26T23:20:08.452Z,86.67
2023-04-26T23:22:36.287Z,86.85
2023-04-26T23:25:05.902Z,86.76
2023-04-26T23:27:33.825Z,86.79
2023-04-26T23:30:01.815Z,87.16
2023-04-26T23:32:29.631Z,87.76
2023-04-26T23:34:59.702Z,87.86
2023-04-26T23:37:27.517Z,87.86
2023-04-26T23:39:55.753Z,87.95
2023-04-26T23:42:24.895Z,88.37
2023-04-26T23:44:53.294Z,88.77
2023-04-26T23:47:21.259Z,88.87
2023-04-26T23:49:49.075Z,89.06
2023-04-26T23:52:16.928Z,89.47
2023-04-26T23:54:44.768Z,89.91
2023-04-26T23:57:12.776Z,90.00
2023-04-26T23:59:41.945Z,90.55
